RYR17PE LERS-EGCC
Flight info
| Callsign | RYR17PE |
|---|---|
| Flight time | 2h 3m |
| Altitude | 38000 |
| Route | NATPI DCT EVNAM DCT TUPAR UY120 AKIKI UN867 AVANT UM184 HEMEL T420 ELVOS |
| Aircraft | B38M/M-SADE3FGILRWY/SB1 |
Departure
| Time | 2026-04-25 15:53 |
|---|---|
| Airport | Reus Airport (LERS) |
Arrival
| Time | 2026-04-25 17:57 |
|---|---|
| Airport | Manchester Airport (EGCC) |
| Time | Latitude | Longitude | Altitude | Speed | Heading |
|---|---|---|---|---|---|
| 2026-04-25 15:16 | 41.14647 | 1.15501 | 243 ft | 0 kts | 339° |
| 2026-04-25 15:42 | 41.14646 | 1.15502 | 243 ft | 2 kts | 339° |
| 2026-04-25 15:42 | 41.14625 | 1.15511 | 243 ft | 3 kts | 344° |
| 2026-04-25 15:42 | 41.14603 | 1.15518 | 243 ft | 3 kts | 353° |
| 2026-04-25 15:42 | 41.14581 | 1.15519 | 243 ft | 3 kts | 12° |
| 2026-04-25 15:43 | 41.14564 | 1.15508 | 243 ft | 3 kts | 57° |
| 2026-04-25 15:43 | 41.14561 | 1.15501 | 243 ft | 1 kts | 69° |
| 2026-04-25 15:48 | 41.14563 | 1.15507 | 243 ft | 2 kts | 69° |
| 2026-04-25 15:48 | 41.14573 | 1.15542 | 243 ft | 7 kts | 69° |
| 2026-04-25 15:49 | 41.14599 | 1.15635 | 244 ft | 15 kts | 69° |
| 2026-04-25 15:49 | 41.14646 | 1.15792 | 244 ft | 22 kts | 68° |
| 2026-04-25 15:49 | 41.14708 | 1.16006 | 244 ft | 26 kts | 69° |
| 2026-04-25 15:49 | 41.14776 | 1.16238 | 244 ft | 28 kts | 69° |
| 2026-04-25 15:50 | 41.14823 | 1.16398 | 243 ft | 28 kts | 69° |
| 2026-04-25 15:50 | 41.14920 | 1.16732 | 243 ft | 29 kts | 68° |
| 2026-04-25 15:50 | 41.14991 | 1.16971 | 243 ft | 28 kts | 69° |
| 2026-04-25 15:50 | 41.15062 | 1.17216 | 243 ft | 29 kts | 69° |
| 2026-04-25 15:51 | 41.15136 | 1.17468 | 243 ft | 29 kts | 69° |
| 2026-04-25 15:51 | 41.15159 | 1.17549 | 243 ft | 29 kts | 69° |
| 2026-04-25 15:51 | 41.15279 | 1.17958 | 243 ft | 28 kts | 69° |
| 2026-04-25 15:51 | 41.15333 | 1.18141 | 243 ft | 17 kts | 69° |
| 2026-04-25 15:52 | 41.15363 | 1.18286 | 243 ft | 13 kts | 107° |
| 2026-04-25 15:52 | 41.15314 | 1.18335 | 243 ft | 14 kts | 165° |
| 2026-04-25 15:52 | 41.15219 | 1.18292 | 243 ft | 15 kts | 211° |
| 2026-04-25 15:52 | 41.15152 | 1.18127 | 243 ft | 39 kts | 249° |
| 2026-04-25 15:53 | 41.14862 | 1.17136 | 243 ft | 129 kts | 249° |
| 2026-04-25 15:53 | 41.14616 | 1.16299 | 245 ft | 164 kts | 249° |
| 2026-04-25 15:53 | 41.14193 | 1.14867 | 794 ft | 165 kts | 245° |
| 2026-04-25 15:53 | 41.13388 | 1.13071 | 1508 ft | 185 kts | 236° |
| 2026-04-25 15:54 | 41.12877 | 1.12054 | 1704 ft | 208 kts | 235° |
| 2026-04-25 15:54 | 41.12045 | 1.10342 | 2255 ft | 228 kts | 236° |
| 2026-04-25 15:54 | 41.11190 | 1.08519 | 3049 ft | 237 kts | 236° |
| 2026-04-25 15:54 | 41.10307 | 1.06645 | 3870 ft | 247 kts | 236° |
| 2026-04-25 15:55 | 41.09372 | 1.04602 | 4355 ft | 269 kts | 237° |
| 2026-04-25 15:55 | 41.08399 | 1.02448 | 5180 ft | 275 kts | 238° |
| 2026-04-25 15:55 | 41.07444 | 1.00240 | 6082 ft | 278 kts | 245° |
| 2026-04-25 15:55 | 41.07122 | 0.97717 | 6813 ft | 286 kts | 279° |
| 2026-04-25 15:56 | 41.07939 | 0.95333 | 7541 ft | 289 kts | 314° |
| 2026-04-25 15:56 | 41.09542 | 0.93875 | 8537 ft | 279 kts | 342° |
| 2026-04-25 15:56 | 41.11484 | 0.93565 | 9195 ft | 286 kts | 11° |
| 2026-04-25 15:56 | 41.13375 | 0.94284 | 10124 ft | 282 kts | 21° |
| 2026-04-25 15:57 | 41.15262 | 0.95165 | 10699 ft | 296 kts | 21° |
| 2026-04-25 15:57 | 41.17268 | 0.96092 | 11073 ft | 314 kts | 20° |
| 2026-04-25 15:57 | 41.19376 | 0.97055 | 11600 ft | 324 kts | 20° |
| 2026-04-25 15:57 | 41.21509 | 0.98023 | 12423 ft | 326 kts | 19° |
| 2026-04-25 15:58 | 41.23680 | 0.99005 | 13145 ft | 331 kts | 19° |
| 2026-04-25 15:58 | 41.25867 | 0.99997 | 13952 ft | 333 kts | 20° |
| 2026-04-25 15:58 | 41.28079 | 1.01000 | 14565 ft | 339 kts | 19° |
| 2026-04-25 15:58 | 41.30328 | 1.02019 | 15257 ft | 342 kts | 20° |
| 2026-04-25 15:59 | 41.32588 | 1.03045 | 15923 ft | 346 kts | 20° |
| 2026-04-25 15:59 | 41.34890 | 1.04090 | 16524 ft | 352 kts | 19° |
| 2026-04-25 15:59 | 41.37222 | 1.05151 | 17136 ft | 356 kts | 20° |
| 2026-04-25 15:59 | 41.39550 | 1.06211 | 17739 ft | 361 kts | 20° |
| 2026-04-25 16:00 | 41.41941 | 1.07298 | 18344 ft | 365 kts | 20° |
| 2026-04-25 16:00 | 41.43567 | 1.08039 | 18698 ft | 367 kts | 19° |
| 2026-04-25 16:00 | 41.46788 | 1.09508 | 19416 ft | 371 kts | 20° |
| 2026-04-25 16:00 | 41.49273 | 1.10642 | 19961 ft | 374 kts | 19° |
| 2026-04-25 16:01 | 41.51706 | 1.11753 | 20477 ft | 376 kts | 19° |
| 2026-04-25 16:01 | 41.54200 | 1.12869 | 20991 ft | 379 kts | 16° |
| 2026-04-25 16:01 | 41.56779 | 1.13678 | 21517 ft | 382 kts | 13° |
| 2026-04-25 16:01 | 41.59382 | 1.14493 | 21979 ft | 387 kts | 13° |
| 2026-04-25 16:02 | 41.62001 | 1.15332 | 22562 ft | 387 kts | 13° |
| 2026-04-25 16:02 | 41.64627 | 1.16185 | 23083 ft | 390 kts | 14° |
| 2026-04-25 16:02 | 41.67274 | 1.17050 | 23587 ft | 393 kts | 14° |
| 2026-04-25 16:02 | 41.69941 | 1.17924 | 24030 ft | 396 kts | 14° |
| 2026-04-25 16:03 | 41.72628 | 1.18806 | 24435 ft | 399 kts | 13° |
| 2026-04-25 16:03 | 41.75330 | 1.19693 | 24879 ft | 401 kts | 13° |
| 2026-04-25 16:03 | 41.78049 | 1.20588 | 25276 ft | 404 kts | 13° |
| 2026-04-25 16:03 | 41.80792 | 1.21490 | 25669 ft | 407 kts | 13° |
| 2026-04-25 16:04 | 41.83555 | 1.22401 | 26076 ft | 410 kts | 13° |
| 2026-04-25 16:04 | 41.86336 | 1.23318 | 26469 ft | 413 kts | 13° |
| 2026-04-25 16:04 | 41.89136 | 1.24242 | 26858 ft | 416 kts | 13° |
| 2026-04-25 16:04 | 41.91952 | 1.25172 | 27248 ft | 418 kts | 13° |
| 2026-04-25 16:05 | 41.94787 | 1.26109 | 27620 ft | 421 kts | 13° |
| 2026-04-25 16:05 | 41.97636 | 1.27052 | 28012 ft | 423 kts | 13° |
| 2026-04-25 16:05 | 42.03393 | 1.28960 | 28731 ft | 429 kts | 13° |
| 2026-04-25 16:06 | 42.06298 | 1.29924 | 29104 ft | 431 kts | 12° |
| 2026-04-25 16:06 | 42.09217 | 1.30893 | 29456 ft | 434 kts | 13° |
| 2026-04-25 16:06 | 42.12155 | 1.31870 | 29819 ft | 436 kts | 12° |
| 2026-04-25 16:06 | 42.15106 | 1.32852 | 30160 ft | 438 kts | 12° |
| 2026-04-25 16:07 | 42.18037 | 1.33828 | 30461 ft | 440 kts | 12° |
| 2026-04-25 16:07 | 42.20056 | 1.34438 | 30723 ft | 441 kts | 7° |
| 2026-04-25 16:07 | 42.24086 | 1.34274 | 31161 ft | 439 kts | 349° |
| 2026-04-25 16:07 | 42.27123 | 1.33649 | 31378 ft | 444 kts | 350° |
| 2026-04-25 16:08 | 42.30177 | 1.33010 | 31702 ft | 444 kts | 350° |
| 2026-04-25 16:08 | 42.33232 | 1.32347 | 31964 ft | 446 kts | 349° |
| 2026-04-25 16:08 | 42.36307 | 1.31666 | 32241 ft | 448 kts | 349° |
| 2026-04-25 16:08 | 42.39391 | 1.30980 | 32515 ft | 450 kts | 349° |
| 2026-04-25 16:09 | 42.42485 | 1.30290 | 32755 ft | 452 kts | 349° |
| 2026-04-25 16:09 | 42.45595 | 1.29595 | 33086 ft | 453 kts | 349° |
| 2026-04-25 16:09 | 42.48701 | 1.28901 | 33472 ft | 452 kts | 349° |
| 2026-04-25 16:09 | 42.51802 | 1.28207 | 33860 ft | 451 kts | 349° |
| 2026-04-25 16:10 | 42.54898 | 1.27513 | 34217 ft | 451 kts | 349° |
| 2026-04-25 16:10 | 42.57992 | 1.26819 | 34516 ft | 450 kts | 349° |
| 2026-04-25 16:10 | 42.61083 | 1.26125 | 34829 ft | 450 kts | 349° |
| 2026-04-25 16:10 | 42.64171 | 1.25431 | 35132 ft | 450 kts | 349° |
| 2026-04-25 16:11 | 42.67254 | 1.24713 | 35394 ft | 449 kts | 346° |
| 2026-04-25 16:11 | 42.70185 | 1.23335 | 35617 ft | 444 kts | 333° |
| 2026-04-25 16:11 | 42.73048 | 1.21742 | 35867 ft | 445 kts | 338° |
| 2026-04-25 16:11 | 42.75957 | 1.20302 | 36114 ft | 445 kts | 338° |
| 2026-04-25 16:12 | 42.78879 | 1.18883 | 36196 ft | 447 kts | 339° |
| 2026-04-25 16:12 | 42.84738 | 1.16079 | 36183 ft | 445 kts | 339° |
| 2026-04-25 16:13 | 42.90589 | 1.13284 | 36168 ft | 445 kts | 339° |
| 2026-04-25 16:13 | 42.96443 | 1.10483 | 36150 ft | 446 kts | 339° |
| 2026-04-25 16:14 | 43.02290 | 1.07680 | 36173 ft | 446 kts | 338° |
| 2026-04-25 16:14 | 43.08135 | 1.04871 | 36165 ft | 445 kts | 338° |
| 2026-04-25 16:15 | 43.12993 | 1.02533 | 36165 ft | 445 kts | 338° |
| 2026-04-25 16:15 | 43.19821 | 0.99240 | 36156 ft | 445 kts | 338° |
| 2026-04-25 16:16 | 43.25662 | 0.96416 | 36162 ft | 445 kts | 338° |
| 2026-04-25 16:16 | 43.31502 | 0.93588 | 36154 ft | 445 kts | 338° |
| 2026-04-25 16:17 | 43.37337 | 0.90756 | 36155 ft | 445 kts | 338° |
| 2026-04-25 16:17 | 43.43135 | 0.87937 | 36164 ft | 445 kts | 337° |
| 2026-04-25 16:18 | 43.48973 | 0.85092 | 36155 ft | 445 kts | 337° |
| 2026-04-25 16:18 | 43.54814 | 0.82239 | 36157 ft | 445 kts | 337° |
| 2026-04-25 16:19 | 43.60655 | 0.79381 | 36152 ft | 445 kts | 337° |
| 2026-04-25 16:19 | 43.66492 | 0.76519 | 36151 ft | 445 kts | 337° |
| 2026-04-25 16:20 | 43.75276 | 0.72201 | 36151 ft | 448 kts | 337° |
| 2026-04-25 16:21 | 43.84068 | 0.67865 | 36164 ft | 447 kts | 337° |
| 2026-04-25 16:21 | 43.89928 | 0.64967 | 36152 ft | 446 kts | 337° |
| 2026-04-25 16:22 | 43.95780 | 0.62068 | 36152 ft | 447 kts | 337° |
| 2026-04-25 16:22 | 44.01633 | 0.59162 | 36154 ft | 447 kts | 337° |
| 2026-04-25 16:23 | 44.07479 | 0.56254 | 36157 ft | 446 kts | 337° |
| 2026-04-25 16:23 | 44.13321 | 0.53341 | 36156 ft | 446 kts | 337° |
| 2026-04-25 16:24 | 44.19161 | 0.50423 | 36160 ft | 446 kts | 337° |
| 2026-04-25 16:24 | 44.25001 | 0.47498 | 36162 ft | 446 kts | 337° |
| 2026-04-25 16:25 | 44.29849 | 0.45066 | 36146 ft | 446 kts | 337° |
| 2026-04-25 16:25 | 44.36668 | 0.41638 | 36144 ft | 446 kts | 337° |
| 2026-04-25 16:26 | 44.42466 | 0.38717 | 36156 ft | 446 kts | 337° |
| 2026-04-25 16:26 | 44.48289 | 0.35776 | 36144 ft | 444 kts | 337° |
| 2026-04-25 16:27 | 44.54101 | 0.32835 | 36150 ft | 444 kts | 337° |
| 2026-04-25 16:27 | 44.59912 | 0.29889 | 36148 ft | 444 kts | 337° |
| 2026-04-25 16:28 | 44.65717 | 0.26939 | 36153 ft | 444 kts | 337° |
| 2026-04-25 16:28 | 44.71531 | 0.23978 | 36149 ft | 444 kts | 337° |
| 2026-04-25 16:29 | 44.77341 | 0.21012 | 36151 ft | 444 kts | 337° |
| 2026-04-25 16:29 | 44.83147 | 0.18043 | 36146 ft | 444 kts | 337° |
| 2026-04-25 16:30 | 44.88956 | 0.15065 | 36141 ft | 444 kts | 336° |
| 2026-04-25 16:30 | 44.94760 | 0.12084 | 36147 ft | 444 kts | 336° |
| 2026-04-25 16:31 | 45.00570 | 0.09093 | 36149 ft | 444 kts | 336° |
| 2026-04-25 16:31 | 45.06399 | 0.06086 | 36144 ft | 447 kts | 336° |
| 2026-04-25 16:32 | 45.12236 | 0.03068 | 36129 ft | 447 kts | 336° |
| 2026-04-25 16:32 | 45.18076 | 0.00043 | 36130 ft | 447 kts | 336° |
| 2026-04-25 16:33 | 45.23906 | -0.02985 | 36127 ft | 445 kts | 336° |
| 2026-04-25 16:33 | 45.29721 | -0.06011 | 36134 ft | 445 kts | 336° |
| 2026-04-25 16:34 | 45.35536 | -0.09044 | 36126 ft | 445 kts | 336° |
| 2026-04-25 16:34 | 45.41345 | -0.12080 | 36130 ft | 445 kts | 336° |
| 2026-04-25 16:35 | 45.47150 | -0.15121 | 36126 ft | 444 kts | 336° |
| 2026-04-25 16:35 | 45.52957 | -0.18170 | 36127 ft | 444 kts | 336° |
| 2026-04-25 16:36 | 45.58761 | -0.21223 | 36144 ft | 444 kts | 336° |
| 2026-04-25 16:36 | 45.64556 | -0.24280 | 36113 ft | 444 kts | 336° |
| 2026-04-25 16:37 | 45.70350 | -0.27342 | 36127 ft | 444 kts | 336° |
| 2026-04-25 16:37 | 45.76140 | -0.30409 | 36120 ft | 444 kts | 336° |
| 2026-04-25 16:38 | 45.81889 | -0.33461 | 36123 ft | 444 kts | 336° |
| 2026-04-25 16:38 | 45.87713 | -0.36559 | 36108 ft | 443 kts | 336° |
| 2026-04-25 16:39 | 45.93460 | -0.39623 | 36122 ft | 443 kts | 336° |
| 2026-04-25 16:39 | 45.99241 | -0.42712 | 36118 ft | 443 kts | 336° |
| 2026-04-25 16:40 | 46.05025 | -0.45810 | 36111 ft | 443 kts | 336° |
| 2026-04-25 16:40 | 46.10808 | -0.48915 | 36116 ft | 444 kts | 336° |
| 2026-04-25 16:41 | 46.16584 | -0.52032 | 36117 ft | 443 kts | 335° |
| 2026-04-25 16:41 | 46.24318 | -0.56201 | 36116 ft | 443 kts | 336° |
| 2026-04-25 16:42 | 46.30099 | -0.59328 | 36104 ft | 444 kts | 336° |
| 2026-04-25 16:42 | 46.35842 | -0.62440 | 36112 ft | 444 kts | 336° |
| 2026-04-25 16:43 | 46.41620 | -0.65582 | 36105 ft | 443 kts | 335° |
| 2026-04-25 16:43 | 46.47152 | -0.69427 | 36112 ft | 441 kts | 330° |
| 2026-04-25 16:44 | 46.52652 | -0.73390 | 36115 ft | 441 kts | 330° |
| 2026-04-25 16:44 | 46.58133 | -0.77393 | 36118 ft | 441 kts | 330° |
| 2026-04-25 16:45 | 46.63617 | -0.81415 | 36121 ft | 441 kts | 331° |
| 2026-04-25 16:45 | 46.69048 | -0.85409 | 36116 ft | 435 kts | 331° |
| 2026-04-25 16:46 | 46.74443 | -0.89384 | 36117 ft | 435 kts | 331° |
| 2026-04-25 16:46 | 46.78933 | -0.92698 | 36113 ft | 435 kts | 331° |
| 2026-04-25 16:47 | 46.85241 | -0.97365 | 36119 ft | 435 kts | 331° |
| 2026-04-25 16:47 | 46.90638 | -1.01369 | 36118 ft | 435 kts | 331° |
| 2026-04-25 16:48 | 46.96364 | -1.04050 | 36121 ft | 437 kts | 353° |
| 2026-04-25 16:48 | 47.02434 | -1.04984 | 36105 ft | 439 kts | 352° |
| 2026-04-25 16:49 | 47.08526 | -1.05849 | 36438 ft | 440 kts | 353° |
| 2026-04-25 16:49 | 47.11578 | -1.06267 | 36638 ft | 441 kts | 353° |
| 2026-04-25 16:49 | 47.14631 | -1.06684 | 36831 ft | 441 kts | 353° |
| 2026-04-25 16:50 | 47.17688 | -1.07101 | 37037 ft | 441 kts | 353° |
| 2026-04-25 16:50 | 47.20741 | -1.07517 | 37264 ft | 441 kts | 353° |
| 2026-04-25 16:50 | 47.23794 | -1.07935 | 37493 ft | 440 kts | 353° |
| 2026-04-25 16:50 | 47.26840 | -1.08351 | 37711 ft | 440 kts | 353° |
| 2026-04-25 16:51 | 47.29845 | -1.08762 | 37918 ft | 439 kts | 353° |
| 2026-04-25 16:51 | 47.32883 | -1.09179 | 38099 ft | 439 kts | 353° |
| 2026-04-25 16:51 | 47.37985 | -1.09879 | 38099 ft | 438 kts | 353° |
| 2026-04-25 16:52 | 47.45021 | -1.10847 | 38105 ft | 437 kts | 353° |
| 2026-04-25 16:52 | 47.51073 | -1.11682 | 38107 ft | 437 kts | 353° |
| 2026-04-25 16:53 | 47.60160 | -1.12941 | 38117 ft | 437 kts | 353° |
| 2026-04-25 16:54 | 47.66204 | -1.13781 | 38113 ft | 436 kts | 353° |
| 2026-04-25 16:54 | 47.72255 | -1.14624 | 38115 ft | 436 kts | 353° |
| 2026-04-25 16:55 | 47.78303 | -1.15468 | 38117 ft | 436 kts | 353° |
| 2026-04-25 16:55 | 47.84345 | -1.16314 | 38119 ft | 436 kts | 353° |
| 2026-04-25 16:56 | 47.90391 | -1.17161 | 38122 ft | 436 kts | 353° |
| 2026-04-25 16:56 | 47.96430 | -1.18011 | 38121 ft | 436 kts | 353° |
| 2026-04-25 16:57 | 48.02473 | -1.18862 | 38132 ft | 436 kts | 353° |
| 2026-04-25 16:57 | 48.08519 | -1.19716 | 38127 ft | 436 kts | 353° |
| 2026-04-25 16:58 | 48.14559 | -1.20571 | 38125 ft | 436 kts | 353° |
| 2026-04-25 16:58 | 48.20603 | -1.21429 | 38128 ft | 436 kts | 353° |
| 2026-04-25 16:59 | 48.26645 | -1.22288 | 38137 ft | 437 kts | 353° |
| 2026-04-25 16:59 | 48.32701 | -1.23152 | 38136 ft | 437 kts | 353° |
| 2026-04-25 17:00 | 48.38753 | -1.24017 | 38137 ft | 437 kts | 353° |
| 2026-04-25 17:00 | 48.44805 | -1.24885 | 38147 ft | 437 kts | 352° |
| 2026-04-25 17:01 | 48.50861 | -1.25754 | 38154 ft | 437 kts | 352° |
| 2026-04-25 17:01 | 48.56926 | -1.26627 | 38147 ft | 438 kts | 352° |
| 2026-04-25 17:02 | 48.62987 | -1.27502 | 38149 ft | 438 kts | 352° |
| 2026-04-25 17:02 | 48.69010 | -1.28373 | 38152 ft | 437 kts | 352° |
| 2026-04-25 17:03 | 48.75066 | -1.29251 | 38158 ft | 437 kts | 352° |
| 2026-04-25 17:03 | 48.81125 | -1.30132 | 38158 ft | 437 kts | 352° |
| 2026-04-25 17:04 | 48.87179 | -1.31014 | 38160 ft | 437 kts | 352° |
| 2026-04-25 17:04 | 48.93232 | -1.31898 | 38167 ft | 437 kts | 352° |
| 2026-04-25 17:05 | 48.99275 | -1.32783 | 38170 ft | 436 kts | 352° |
| 2026-04-25 17:05 | 49.08348 | -1.34116 | 38174 ft | 436 kts | 352° |
| 2026-04-25 17:06 | 49.14395 | -1.35006 | 38176 ft | 437 kts | 352° |
| 2026-04-25 17:06 | 49.20443 | -1.35899 | 38176 ft | 437 kts | 352° |
| 2026-04-25 17:07 | 49.26496 | -1.36796 | 38181 ft | 437 kts | 352° |
| 2026-04-25 17:07 | 49.32546 | -1.37694 | 38184 ft | 437 kts | 352° |
| 2026-04-25 17:08 | 49.38605 | -1.38595 | 38180 ft | 437 kts | 352° |
| 2026-04-25 17:08 | 49.44661 | -1.39498 | 38183 ft | 437 kts | 352° |
| 2026-04-25 17:09 | 49.50719 | -1.40403 | 38185 ft | 437 kts | 352° |
| 2026-04-25 17:09 | 49.56784 | -1.41312 | 38185 ft | 438 kts | 352° |
| 2026-04-25 17:10 | 49.62887 | -1.41310 | 38210 ft | 441 kts | 0° |
| 2026-04-25 17:10 | 49.69020 | -1.40794 | 38179 ft | 441 kts | 1° |
| 2026-04-25 17:11 | 49.75152 | -1.40254 | 38193 ft | 442 kts | 1° |
| 2026-04-25 17:11 | 49.81252 | -1.39714 | 38185 ft | 442 kts | 1° |
| 2026-04-25 17:12 | 49.87392 | -1.39169 | 38186 ft | 442 kts | 1° |
| 2026-04-25 17:12 | 49.93531 | -1.38622 | 38189 ft | 442 kts | 1° |
| 2026-04-25 17:13 | 49.97638 | -1.38255 | 38200 ft | 442 kts | 1° |
| 2026-04-25 17:13 | 50.05779 | -1.36603 | 38210 ft | 445 kts | 6° |
| 2026-04-25 17:14 | 50.11892 | -1.35093 | 38204 ft | 445 kts | 6° |
| 2026-04-25 17:14 | 50.18006 | -1.33571 | 38197 ft | 445 kts | 6° |
| 2026-04-25 17:15 | 50.24118 | -1.32044 | 38202 ft | 445 kts | 6° |
| 2026-04-25 17:15 | 50.30234 | -1.30513 | 38204 ft | 445 kts | 6° |
| 2026-04-25 17:16 | 50.36345 | -1.28979 | 38192 ft | 445 kts | 6° |
| 2026-04-25 17:16 | 50.42462 | -1.27439 | 38214 ft | 445 kts | 7° |
| 2026-04-25 17:17 | 50.48569 | -1.25830 | 38194 ft | 446 kts | 12° |
| 2026-04-25 17:17 | 50.51454 | -1.24019 | 38180 ft | 448 kts | 28° |
| 2026-04-25 17:17 | 50.54125 | -1.21477 | 38202 ft | 451 kts | 29° |
| 2026-04-25 17:18 | 50.59487 | -1.16299 | 38202 ft | 452 kts | 30° |
| 2026-04-25 17:18 | 50.64820 | -1.11019 | 38208 ft | 453 kts | 30° |
| 2026-04-25 17:19 | 50.70145 | -1.05710 | 38199 ft | 453 kts | 30° |
| 2026-04-25 17:19 | 50.75464 | -1.00391 | 38199 ft | 453 kts | 30° |
| 2026-04-25 17:20 | 50.80786 | -0.95067 | 38196 ft | 453 kts | 28° |
| 2026-04-25 17:20 | 50.83633 | -0.93038 | 38185 ft | 446 kts | 14° |
| 2026-04-25 17:20 | 50.86592 | -0.91547 | 38189 ft | 449 kts | 16° |
| 2026-04-25 17:21 | 50.92509 | -0.88421 | 38202 ft | 449 kts | 16° |
| 2026-04-25 17:21 | 50.98442 | -0.85339 | 38187 ft | 448 kts | 16° |
| 2026-04-25 17:22 | 51.02373 | -0.83298 | 38190 ft | 449 kts | 15° |
| 2026-04-25 17:22 | 51.10309 | -0.79167 | 38187 ft | 449 kts | 16° |
| 2026-04-25 17:23 | 51.16236 | -0.76072 | 38183 ft | 449 kts | 16° |
| 2026-04-25 17:23 | 51.22169 | -0.72966 | 38182 ft | 449 kts | 16° |
| 2026-04-25 17:24 | 51.28098 | -0.69853 | 38184 ft | 449 kts | 16° |
| 2026-04-25 17:24 | 51.34023 | -0.66734 | 38193 ft | 449 kts | 16° |
| 2026-04-25 17:25 | 51.39959 | -0.63600 | 38184 ft | 448 kts | 16° |
| 2026-04-25 17:25 | 51.45876 | -0.60469 | 38185 ft | 449 kts | 16° |
| 2026-04-25 17:26 | 51.51767 | -0.57342 | 38185 ft | 448 kts | 16° |
| 2026-04-25 17:26 | 51.57691 | -0.54189 | 38188 ft | 449 kts | 16° |
| 2026-04-25 17:27 | 51.63614 | -0.51028 | 38184 ft | 448 kts | 16° |
| 2026-04-25 17:27 | 51.67571 | -0.48911 | 38186 ft | 448 kts | 16° |
| 2026-04-25 17:28 | 51.75460 | -0.44701 | 38233 ft | 448 kts | 13° |
| 2026-04-25 17:28 | 51.78499 | -0.43905 | 38153 ft | 441 kts | 357° |
| 2026-04-25 17:28 | 51.81518 | -0.44458 | 38198 ft | 436 kts | 342° |
| 2026-04-25 17:29 | 51.84331 | -0.46234 | 38184 ft | 433 kts | 330° |
| 2026-04-25 17:29 | 51.86137 | -0.47767 | 38197 ft | 435 kts | 330° |
| 2026-04-25 17:29 | 51.91371 | -0.52538 | 38181 ft | 435 kts | 328° |
| 2026-04-25 17:30 | 51.96576 | -0.57535 | 38184 ft | 435 kts | 327° |
| 2026-04-25 17:30 | 52.01757 | -0.62592 | 38181 ft | 435 kts | 327° |
| 2026-04-25 17:31 | 52.04343 | -0.65127 | 37983 ft | 432 kts | 327° |
| 2026-04-25 17:31 | 52.06898 | -0.67634 | 37478 ft | 426 kts | 327° |
| 2026-04-25 17:31 | 52.09447 | -0.70139 | 36985 ft | 421 kts | 327° |
| 2026-04-25 17:31 | 52.11914 | -0.72568 | 36352 ft | 420 kts | 327° |
| 2026-04-25 17:32 | 52.14420 | -0.75038 | 35578 ft | 424 kts | 327° |
| 2026-04-25 17:32 | 52.16961 | -0.77546 | 34723 ft | 430 kts | 327° |
| 2026-04-25 17:32 | 52.19535 | -0.80090 | 33821 ft | 436 kts | 327° |
| 2026-04-25 17:32 | 52.22140 | -0.82667 | 32861 ft | 441 kts | 327° |
| 2026-04-25 17:33 | 52.24771 | -0.85275 | 31928 ft | 445 kts | 327° |
| 2026-04-25 17:33 | 52.27427 | -0.87911 | 31012 ft | 448 kts | 327° |
| 2026-04-25 17:33 | 52.30112 | -0.90578 | 30112 ft | 452 kts | 327° |
| 2026-04-25 17:33 | 52.32798 | -0.93253 | 29080 ft | 455 kts | 327° |
| 2026-04-25 17:34 | 52.35508 | -0.95953 | 28096 ft | 457 kts | 327° |
| 2026-04-25 17:34 | 52.38222 | -0.98662 | 27135 ft | 458 kts | 327° |
| 2026-04-25 17:34 | 52.40943 | -1.01383 | 26203 ft | 458 kts | 327° |
| 2026-04-25 17:34 | 52.43659 | -1.04101 | 25313 ft | 457 kts | 327° |
| 2026-04-25 17:35 | 52.46368 | -1.06816 | 24481 ft | 455 kts | 327° |
| 2026-04-25 17:35 | 52.49047 | -1.09506 | 23869 ft | 449 kts | 327° |
| 2026-04-25 17:35 | 52.51688 | -1.12161 | 23328 ft | 440 kts | 327° |
| 2026-04-25 17:35 | 52.54263 | -1.14753 | 22908 ft | 429 kts | 327° |
| 2026-04-25 17:36 | 52.56784 | -1.17293 | 22421 ft | 421 kts | 327° |
| 2026-04-25 17:36 | 52.59257 | -1.19789 | 21971 ft | 413 kts | 327° |
| 2026-04-25 17:36 | 52.61681 | -1.22237 | 21580 ft | 405 kts | 327° |
| 2026-04-25 17:36 | 52.64059 | -1.24643 | 21163 ft | 398 kts | 327° |
| 2026-04-25 17:37 | 52.66394 | -1.27007 | 20747 ft | 392 kts | 327° |
| 2026-04-25 17:37 | 52.68702 | -1.29348 | 20348 ft | 386 kts | 327° |
| 2026-04-25 17:37 | 52.70972 | -1.31654 | 19939 ft | 381 kts | 327° |
| 2026-04-25 17:37 | 52.73225 | -1.33947 | 19506 ft | 378 kts | 327° |
| 2026-04-25 17:38 | 52.75423 | -1.36187 | 19111 ft | 375 kts | 327° |
| 2026-04-25 17:38 | 52.76921 | -1.37715 | 18808 ft | 374 kts | 327° |
| 2026-04-25 17:38 | 52.79839 | -1.40694 | 18208 ft | 369 kts | 327° |
| 2026-04-25 17:38 | 52.81982 | -1.42886 | 17762 ft | 355 kts | 327° |
| 2026-04-25 17:39 | 52.84045 | -1.44998 | 17358 ft | 342 kts | 327° |
| 2026-04-25 17:39 | 52.86025 | -1.47027 | 16969 ft | 329 kts | 327° |
| 2026-04-25 17:39 | 52.87940 | -1.48992 | 16597 ft | 320 kts | 327° |
| 2026-04-25 17:39 | 52.89813 | -1.50916 | 16222 ft | 314 kts | 327° |
| 2026-04-25 17:40 | 52.91667 | -1.52822 | 15849 ft | 313 kts | 327° |
| 2026-04-25 17:40 | 52.93516 | -1.54725 | 15482 ft | 312 kts | 327° |
| 2026-04-25 17:40 | 52.95354 | -1.56618 | 15117 ft | 311 kts | 327° |
| 2026-04-25 17:40 | 52.97188 | -1.58509 | 14767 ft | 309 kts | 327° |
| 2026-04-25 17:41 | 52.99013 | -1.60394 | 14403 ft | 309 kts | 327° |
| 2026-04-25 17:41 | 53.00834 | -1.62275 | 14047 ft | 308 kts | 327° |
| 2026-04-25 17:41 | 53.02653 | -1.64156 | 13649 ft | 308 kts | 327° |
| 2026-04-25 17:41 | 53.04458 | -1.66024 | 13248 ft | 302 kts | 327° |
| 2026-04-25 17:42 | 53.06035 | -1.68201 | 12838 ft | 291 kts | 310° |
| 2026-04-25 17:42 | 53.07314 | -1.70722 | 12531 ft | 280 kts | 310° |
| 2026-04-25 17:42 | 53.08560 | -1.73123 | 12244 ft | 269 kts | 310° |
| 2026-04-25 17:42 | 53.09760 | -1.75443 | 11934 ft | 260 kts | 310° |
| 2026-04-25 17:43 | 53.10925 | -1.77699 | 11650 ft | 256 kts | 310° |
| 2026-04-25 17:43 | 53.12084 | -1.79948 | 11335 ft | 256 kts | 310° |
| 2026-04-25 17:43 | 53.13241 | -1.82194 | 11035 ft | 255 kts | 310° |
| 2026-04-25 17:43 | 53.14394 | -1.84436 | 10746 ft | 254 kts | 310° |
| 2026-04-25 17:44 | 53.15542 | -1.86671 | 10453 ft | 254 kts | 310° |
| 2026-04-25 17:44 | 53.16688 | -1.88902 | 10177 ft | 253 kts | 310° |
| 2026-04-25 17:44 | 53.17830 | -1.91128 | 9862 ft | 253 kts | 310° |
| 2026-04-25 17:44 | 53.18971 | -1.93354 | 9539 ft | 252 kts | 310° |
| 2026-04-25 17:45 | 53.20103 | -1.95564 | 9241 ft | 250 kts | 310° |
| 2026-04-25 17:45 | 53.20865 | -1.97055 | 9044 ft | 249 kts | 310° |
| 2026-04-25 17:45 | 53.22347 | -1.99952 | 8658 ft | 247 kts | 310° |
| 2026-04-25 17:45 | 53.23457 | -2.02124 | 8386 ft | 245 kts | 311° |
| 2026-04-25 17:46 | 53.24761 | -2.03892 | 8106 ft | 244 kts | 336° |
| 2026-04-25 17:46 | 53.26422 | -2.04373 | 7791 ft | 247 kts | 4° |
| 2026-04-25 17:46 | 53.28032 | -2.03390 | 7479 ft | 251 kts | 33° |
| 2026-04-25 17:46 | 53.29361 | -2.01535 | 7398 ft | 248 kts | 40° |
| 2026-04-25 17:47 | 53.30646 | -1.99599 | 7279 ft | 249 kts | 39° |
| 2026-04-25 17:47 | 53.31933 | -1.97635 | 7005 ft | 253 kts | 40° |
| 2026-04-25 17:47 | 53.33256 | -1.95610 | 6520 ft | 262 kts | 41° |
| 2026-04-25 17:47 | 53.34621 | -1.93564 | 6153 ft | 264 kts | 41° |
| 2026-04-25 17:48 | 53.37363 | -1.89509 | 5627 ft | 261 kts | 40° |
| 2026-04-25 17:48 | 53.38729 | -1.87537 | 5410 ft | 258 kts | 40° |
| 2026-04-25 17:48 | 53.40080 | -1.85592 | 5175 ft | 254 kts | 40° |
| 2026-04-25 17:49 | 53.41412 | -1.83696 | 5045 ft | 246 kts | 40° |
| 2026-04-25 17:49 | 53.42708 | -1.81862 | 5038 ft | 243 kts | 40° |
| 2026-04-25 17:49 | 53.44018 | -1.80071 | 5007 ft | 244 kts | 33° |
| 2026-04-25 17:49 | 53.45589 | -1.79177 | 5001 ft | 239 kts | 1° |
| 2026-04-25 17:50 | 53.47191 | -1.79728 | 4912 ft | 236 kts | 330° |
| 2026-04-25 17:50 | 53.48545 | -1.81276 | 4794 ft | 236 kts | 321° |
| 2026-04-25 17:50 | 53.49814 | -1.82972 | 4649 ft | 231 kts | 320° |
| 2026-04-25 17:50 | 53.51064 | -1.84646 | 4445 ft | 229 kts | 320° |
| 2026-04-25 17:51 | 53.52040 | -1.86667 | 4222 ft | 221 kts | 290° |
| 2026-04-25 17:51 | 53.52238 | -1.89150 | 4029 ft | 213 kts | 264° |
| 2026-04-25 17:51 | 53.52011 | -1.91557 | 3883 ft | 205 kts | 252° |
| 2026-04-25 17:51 | 53.51434 | -1.93679 | 3781 ft | 198 kts | 238° |
| 2026-04-25 17:52 | 53.50663 | -1.95599 | 3695 ft | 198 kts | 233° |
| 2026-04-25 17:52 | 53.50387 | -1.96236 | 3673 ft | 199 kts | 232° |
| 2026-04-25 17:52 | 53.48992 | -1.99301 | 3560 ft | 197 kts | 231° |
| 2026-04-25 17:52 | 53.48177 | -2.01028 | 3543 ft | 183 kts | 231° |
| 2026-04-25 17:53 | 53.47393 | -2.02676 | 3497 ft | 180 kts | 230° |
| 2026-04-25 17:53 | 53.46609 | -2.04311 | 3439 ft | 181 kts | 230° |
| 2026-04-25 17:53 | 53.45820 | -2.05946 | 3213 ft | 180 kts | 230° |
| 2026-04-25 17:53 | 53.45027 | -2.07583 | 2989 ft | 180 kts | 231° |
| 2026-04-25 17:54 | 53.44241 | -2.09214 | 2757 ft | 179 kts | 231° |
| 2026-04-25 17:54 | 53.43459 | -2.10835 | 2550 ft | 178 kts | 231° |
| 2026-04-25 17:54 | 53.42681 | -2.12443 | 2326 ft | 177 kts | 231° |
| 2026-04-25 17:54 | 53.41905 | -2.14047 | 2088 ft | 177 kts | 231° |
| 2026-04-25 17:55 | 53.41141 | -2.15624 | 1856 ft | 176 kts | 231° |
| 2026-04-25 17:55 | 53.40371 | -2.17212 | 1621 ft | 175 kts | 231° |
| 2026-04-25 17:55 | 53.39596 | -2.18811 | 1397 ft | 172 kts | 231° |
| 2026-04-25 17:55 | 53.38857 | -2.20335 | 1170 ft | 163 kts | 231° |
| 2026-04-25 17:56 | 53.38170 | -2.21752 | 958 ft | 153 kts | 231° |
| 2026-04-25 17:56 | 53.37511 | -2.23111 | 745 ft | 149 kts | 232° |
| 2026-04-25 17:56 | 53.36855 | -2.24443 | 508 ft | 150 kts | 231° |
| 2026-04-25 17:56 | 53.36177 | -2.25836 | 317 ft | 155 kts | 232° |
| 2026-04-25 17:57 | 53.35545 | -2.27144 | 254 ft | 117 kts | 231° |
| 2026-04-25 17:57 | 53.35188 | -2.27883 | 239 ft | 56 kts | 231° |
| 2026-04-25 17:57 | 53.34980 | -2.28377 | 234 ft | 44 kts | 248° |
| 2026-04-25 17:57 | 53.34957 | -2.28510 | 234 ft | 28 kts | 258° |
| 2026-04-25 17:58 | 53.35002 | -2.28748 | 229 ft | 14 kts | 17° |
| 2026-04-25 17:58 | 53.35072 | -2.28630 | 232 ft | 15 kts | 50° |
| 2026-04-25 17:58 | 53.35145 | -2.28479 | 229 ft | 19 kts | 51° |
| 2026-04-25 17:58 | 53.35225 | -2.28315 | 237 ft | 18 kts | 50° |
| 2026-04-25 17:59 | 53.35311 | -2.28155 | 237 ft | 19 kts | 44° |
| 2026-04-25 17:59 | 53.35403 | -2.28006 | 239 ft | 19 kts | 44° |
| 2026-04-25 17:59 | 53.35497 | -2.27855 | 242 ft | 19 kts | 44° |
| 2026-04-25 17:59 | 53.35598 | -2.27692 | 245 ft | 19 kts | 44° |
| 2026-04-25 18:00 | 53.35687 | -2.27531 | 252 ft | 18 kts | 51° |
| 2026-04-25 18:00 | 53.35756 | -2.27388 | 257 ft | 16 kts | 51° |
| 2026-04-25 18:00 | 53.35816 | -2.27261 | 257 ft | 10 kts | 52° |
| 2026-04-25 18:00 | 53.35804 | -2.27163 | 258 ft | 10 kts | 130° |
| 2026-04-25 18:01 | 53.35813 | -2.27049 | 258 ft | 12 kts | 59° |
| 2026-04-25 18:01 | 53.35860 | -2.26924 | 257 ft | 13 kts | 53° |
| 2026-04-25 18:01 | 53.35912 | -2.26832 | 257 ft | 8 kts | 16° |
| 2026-04-25 18:01 | 53.35948 | -2.26869 | 257 ft | 5 kts | 296° |
| 2026-04-25 18:02 | 53.35960 | -2.26917 | 257 ft | 4 kts | 291° |
| 2026-04-25 18:02 | 53.35970 | -2.26963 | 257 ft | 4 kts | 291° |
| 2026-04-25 18:02 | 53.35974 | -2.26976 | 257 ft | 0 kts | 291° |